sensor_id;sensor_type;location;lat;lon;timestamp;pressure;altitude;pressure_sealevel;temperature
19568;BMP280;9930;49.240;8.548;2022-12-11T00:00:58;100009.97;;;3.48
19568;BMP280;9930;49.240;8.548;2022-12-11T00:03:27;100018.00;;;3.55
19568;BMP280;9930;49.240;8.548;2022-12-11T00:05:54;100013.63;;;3.53
19568;BMP280;9930;49.240;8.548;2022-12-11T00:08:25;100002.16;;;3.43
19568;BMP280;9930;49.240;8.548;2022-12-11T00:10:54;100020.84;;;3.47
19568;BMP280;9930;49.240;8.548;2022-12-11T00:13:28;100004.13;;;3.34
19568;BMP280;9930;49.240;8.548;2022-12-11T00:15:57;100011.97;;;3.39
19568;BMP280;9930;49.240;8.548;2022-12-11T00:18:28;100014.97;;;3.33
19568;BMP280;9930;49.240;8.548;2022-12-11T00:21:00;100006.88;;;3.24
19568;BMP280;9930;49.240;8.548;2022-12-11T00:23:28;100016.44;;;3.30
19568;BMP280;9930;49.240;8.548;2022-12-11T00:26:04;100007.38;;;3.18
19568;BMP280;9930;49.240;8.548;2022-12-11T00:28:31;100028.59;;;3.22
19568;BMP280;9930;49.240;8.548;2022-12-11T00:31:07;100018.22;;;3.17
19568;BMP280;9930;49.240;8.548;2022-12-11T00:33:33;100003.25;;;3.06
19568;BMP280;9930;49.240;8.548;2022-12-11T00:35:59;100006.72;;;3.08
19568;BMP280;9930;49.240;8.548;2022-12-11T00:38:31;100010.03;;;3.07
19568;BMP280;9930;49.240;8.548;2022-12-11T00:41:01;100008.00;;;3.01
19568;BMP280;9930;49.240;8.548;2022-12-11T00:43:30;100012.16;;;3.01
19568;BMP280;9930;49.240;8.548;2022-12-11T00:46:02;99979.59;;;2.76
19568;BMP280;9930;49.240;8.548;2022-12-11T00:48:31;100006.19;;;2.85
19568;BMP280;9930;49.240;8.548;2022-12-11T00:51:02;100005.22;;;2.83
19568;BMP280;9930;49.240;8.548;2022-12-11T00:53:30;100010.84;;;2.79
19568;BMP280;9930;49.240;8.548;2022-12-11T00:56:09;100022.19;;;2.86
19568;BMP280;9930;49.240;8.548;2022-12-11T00:58:36;100011.63;;;2.78
19568;BMP280;9930;49.240;8.548;2022-12-11T01:01:15;100020.34;;;2.83
19568;BMP280;9930;49.240;8.548;2022-12-11T01:03:41;100015.13;;;2.80
19568;BMP280;9930;49.240;8.548;2022-12-11T01:06:14;100002.94;;;2.73
19568;BMP280;9930;49.240;8.548;2022-12-11T01:08:41;100018.41;;;2.79
19568;BMP280;9930;49.240;8.548;2022-12-11T01:11:10;100020.84;;;2.78
19568;BMP280;9930;49.240;8.548;2022-12-11T01:13:38;100014.75;;;2.74
19568;BMP280;9930;49.240;8.548;2022-12-11T01:16:12;100009.50;;;2.71
19568;BMP280;9930;49.240;8.548;2022-12-11T01:18:41;100021.03;;;2.81
19568;BMP280;9930;49.240;8.548;2022-12-11T01:21:09;100020.16;;;2.80
19568;BMP280;9930;49.240;8.548;2022-12-11T01:23:39;100024.50;;;2.83
19568;BMP280;9930;49.240;8.548;2022-12-11T01:26:12;100022.00;;;2.83
19568;BMP280;9930;49.240;8.548;2022-12-11T01:28:40;100023.81;;;2.85
19568;BMP280;9930;49.240;8.548;2022-12-11T01:31:18;100034.88;;;2.87
19568;BMP280;9930;49.240;8.548;2022-12-11T01:33:44;100012.59;;;2.80
19568;BMP280;9930;49.240;8.548;2022-12-11T01:36:21;100036.03;;;2.92
19568;BMP280;9930;49.240;8.548;2022-12-11T01:38:48;100019.34;;;2.95
19568;BMP280;9930;49.240;8.548;2022-12-11T01:41:19;100035.44;;;2.97
19568;BMP280;9930;49.240;8.548;2022-12-11T01:47:02;100027.28;;;3.01
19568;BMP280;9930;49.240;8.548;2022-12-11T01:49:30;100022.34;;;3.02
19568;BMP280;9930;49.240;8.548;2022-12-11T01:52:10;100019.03;;;3.03
19568;BMP280;9930;49.240;8.548;2022-12-11T01:54:41;99984.31;;;2.84
19568;BMP280;9930;49.240;8.548;2022-12-11T01:57:11;100016.81;;;3.08
19568;BMP280;9930;49.240;8.548;2022-12-11T01:59:42;100008.97;;;3.03
19568;BMP280;9930;49.240;8.548;2022-12-11T02:02:29;100010.72;;;3.04
19568;BMP280;9930;49.240;8.548;2022-12-11T02:05:02;100023.00;;;3.13
19568;BMP280;9930;49.240;8.548;2022-12-11T02:07:37;100028.91;;;3.13
19568;BMP280;9930;49.240;8.548;2022-12-11T02:10:05;100015.25;;;3.10
19568;BMP280;9930;49.240;8.548;2022-12-11T02:13:06;100028.22;;;3.16
19568;BMP280;9930;49.240;8.548;2022-12-11T02:16:02;100016.03;;;3.09
19568;BMP280;9930;49.240;8.548;2022-12-11T02:18:54;100017.28;;;3.15
19568;BMP280;9930;49.240;8.548;2022-12-11T02:21:52;100019.00;;;3.16
19568;BMP280;9930;49.240;8.548;2022-12-11T02:28:16;100040.72;;;3.14
19568;BMP280;9930;49.240;8.548;2022-12-11T02:30:49;100043.34;;;3.16
19568;BMP280;9930;49.240;8.548;2022-12-11T02:33:22;100041.78;;;3.18
19568;BMP280;9930;49.240;8.548;2022-12-11T02:36:03;100039.44;;;3.21
19568;BMP280;9930;49.240;8.548;2022-12-11T02:38:35;100027.63;;;3.20
19568;BMP280;9930;49.240;8.548;2022-12-11T02:41:06;100016.75;;;3.21
19568;BMP280;9930;49.240;8.548;2022-12-11T02:43:34;100017.41;;;3.32
19568;BMP280;9930;49.240;8.548;2022-12-11T02:46:04;100019.75;;;3.29
19568;BMP280;9930;49.240;8.548;2022-12-11T02:48:35;100015.34;;;3.39
19568;BMP280;9930;49.240;8.548;2022-12-11T02:51:04;100013.78;;;3.41
19568;BMP280;9930;49.240;8.548;2022-12-11T02:53:38;99996.84;;;3.39
19568;BMP280;9930;49.240;8.548;2022-12-11T02:56:13;100003.00;;;3.44
19568;BMP280;9930;49.240;8.548;2022-12-11T02:58:59;100008.50;;;3.51
19568;BMP280;9930;49.240;8.548;2022-12-11T03:01:31;100018.00;;;3.55
19568;BMP280;9930;49.240;8.548;2022-12-11T03:03:59;99989.97;;;3.36
19568;BMP280;9930;49.240;8.548;2022-12-11T03:06:43;100027.56;;;3.61
19568;BMP280;9930;49.240;8.548;2022-12-11T03:09:12;100036.09;;;3.63
19568;BMP280;9930;49.240;8.548;2022-12-11T03:11:40;100038.78;;;3.66
19568;BMP280;9930;49.240;8.548;2022-12-11T03:14:09;100036.19;;;3.65
19568;BMP280;9930;49.240;8.548;2022-12-11T03:16:59;100048.38;;;3.72
19568;BMP280;9930;49.240;8.548;2022-12-11T03:25:23;100036.53;;;3.71
19568;BMP280;9930;49.240;8.548;2022-12-11T03:28:20;100044.81;;;3.83
19568;BMP280;9930;49.240;8.548;2022-12-11T03:30:47;100030.38;;;3.80
19568;BMP280;9930;49.240;8.548;2022-12-11T03:33:34;100031.50;;;3.85
19568;BMP280;9930;49.240;8.548;2022-12-11T03:36:13;100035.19;;;3.90
19568;BMP280;9930;49.240;8.548;2022-12-11T03:38:50;100034.47;;;3.93
19568;BMP280;9930;49.240;8.548;2022-12-11T03:41:23;100043.78;;;3.94
19568;BMP280;9930;49.240;8.548;2022-12-11T03:43:58;100043.97;;;3.97
19568;BMP280;9930;49.240;8.548;2022-12-11T03:46:33;100043.97;;;3.97
19568;BMP280;9930;49.240;8.548;2022-12-11T03:49:11;100045.72;;;3.98
19568;BMP280;9930;49.240;8.548;2022-12-11T03:51:40;100026.75;;;3.90
19568;BMP280;9930;49.240;8.548;2022-12-11T03:54:07;100050.75;;;3.98
19568;BMP280;9930;49.240;8.548;2022-12-11T03:56:37;100049.88;;;3.98
19568;BMP280;9930;49.240;8.548;2022-12-11T03:59:04;100037.53;;;3.87
19568;BMP280;9930;49.240;8.548;2022-12-11T04:01:32;100051.53;;;3.97
19568;BMP280;9930;49.240;8.548;2022-12-11T04:04:01;100055.81;;;3.98
19568;BMP280;9930;49.240;8.548;2022-12-11T04:06:29;100044.84;;;3.98
19568;BMP280;9930;49.240;8.548;2022-12-11T04:09:01;100042.31;;;3.98
19568;BMP280;9930;49.240;8.548;2022-12-11T04:11:28;100038.13;;;3.98
19568;BMP280;9930;49.240;8.548;2022-12-11T04:14:10;100038.91;;;3.97
19568;BMP280;9930;49.240;8.548;2022-12-11T04:17:01;100024.13;;;3.88
19568;BMP280;9930;49.240;8.548;2022-12-11T04:19:30;100020.13;;;3.92
19568;BMP280;9930;49.240;8.548;2022-12-11T04:22:18;100006.91;;;3.81
19568;BMP280;9930;49.240;8.548;2022-12-11T04:25:09;100002.53;;;3.79
19568;BMP280;9930;49.240;8.548;2022-12-11T04:27:36;100017.16;;;3.84
19568;BMP280;9930;49.240;8.548;2022-12-11T04:30:22;100014.19;;;3.77
19568;BMP280;9930;49.240;8.548;2022-12-11T04:32:55;100027.84;;;3.80
19568;BMP280;9930;49.240;8.548;2022-12-11T04:35:28;100025.34;;;3.80
19568;BMP280;9930;49.240;8.548;2022-12-11T04:37:58;100029.34;;;3.77
19568;BMP280;9930;49.240;8.548;2022-12-11T04:40:27;100019.84;;;3.73
19568;BMP280;9930;49.240;8.548;2022-12-11T04:42:55;100026.91;;;3.78
19568;BMP280;9930;49.240;8.548;2022-12-11T04:45:26;100036.28;;;3.81
19568;BMP280;9930;49.240;8.548;2022-12-11T04:47:52;100017.31;;;3.73
19568;BMP280;9930;49.240;8.548;2022-12-11T04:50:18;100028.72;;;3.81
19568;BMP280;9930;49.240;8.548;2022-12-11T04:52:46;100014.03;;;3.74
19568;BMP280;9930;49.240;8.548;2022-12-11T04:55:14;100034.72;;;3.83
19568;BMP280;9930;49.240;8.548;2022-12-11T04:57:40;100014.88;;;3.74
19568;BMP280;9930;49.240;8.548;2022-12-11T05:00:10;100020.91;;;3.76
19568;BMP280;9930;49.240;8.548;2022-12-11T05:02:40;100018.38;;;3.76
19568;BMP280;9930;49.240;8.548;2022-12-11T05:05:09;100033.16;;;3.85
19568;BMP280;9930;49.240;8.548;2022-12-11T05:07:36;100027.34;;;3.86
19568;BMP280;9930;49.240;8.548;2022-12-11T05:10:04;100017.69;;;3.79
19568;BMP280;9930;49.240;8.548;2022-12-11T05:12:31;100011.75;;;3.78
19568;BMP280;9930;49.240;8.548;2022-12-11T05:15:00;100023.16;;;3.86
19568;BMP280;9930;49.240;8.548;2022-12-11T05:17:26;100021.53;;;3.87
19568;BMP280;9930;49.240;8.548;2022-12-11T05:19:52;100007.59;;;3.79
19568;BMP280;9930;49.240;8.548;2022-12-11T05:22:20;100022.28;;;3.86
19568;BMP280;9930;49.240;8.548;2022-12-11T05:24:48;100014.72;;;3.86
19568;BMP280;9930;49.240;8.548;2022-12-11T05:27:13;100005.16;;;3.80
19568;BMP280;9930;49.240;8.548;2022-12-11T05:29:39;99998.28;;;3.78
19568;BMP280;9930;49.240;8.548;2022-12-11T05:32:07;99998.38;;;3.79
19568;BMP280;9930;49.240;8.548;2022-12-11T05:34:35;100005.50;;;3.86
19568;BMP280;9930;49.240;8.548;2022-12-11T05:37:01;99995.16;;;3.82
19568;BMP280;9930;49.240;8.548;2022-12-11T05:39:27;99990.91;;;3.81
19568;BMP280;9930;49.240;8.548;2022-12-11T05:41:56;99987.59;;;3.82
19568;BMP280;9930;49.240;8.548;2022-12-11T05:44:21;99996.28;;;3.87
19568;BMP280;9930;49.240;8.548;2022-12-11T05:46:47;100000.38;;;3.85
19568;BMP280;9930;49.240;8.548;2022-12-11T05:49:14;99988.63;;;3.85
19568;BMP280;9930;49.240;8.548;2022-12-11T05:51:40;99985.25;;;3.85
19568;BMP280;9930;49.240;8.548;2022-12-11T05:54:08;99993.59;;;3.84
19568;BMP280;9930;49.240;8.548;2022-12-11T05:56:37;99989.41;;;3.84
19568;BMP280;9930;49.240;8.548;2022-12-11T05:59:05;99975.41;;;3.75
19568;BMP280;9930;49.240;8.548;2022-12-11T06:01:41;99992.19;;;3.74
19568;BMP280;9930;49.240;8.548;2022-12-11T06:04:10;100000.03;;;3.79
19568;BMP280;9930;49.240;8.548;2022-12-11T06:06:37;100002.38;;;3.76
19568;BMP280;9930;49.240;8.548;2022-12-11T06:09:06;99989.41;;;3.70
19568;BMP280;9930;49.240;8.548;2022-12-11T06:11:35;99994.72;;;3.74
19568;BMP280;9930;49.240;8.548;2022-12-11T06:14:02;99989.22;;;3.67
19568;BMP280;9930;49.240;8.548;2022-12-11T06:16:28;99998.03;;;3.73
19568;BMP280;9930;49.240;8.548;2022-12-11T06:18:54;99987.06;;;3.73
19568;BMP280;9930;49.240;8.548;2022-12-11T06:21:28;99992.09;;;3.73
19568;BMP280;9930;49.240;8.548;2022-12-11T06:24:00;99989.59;;;3.73
19568;BMP280;9930;49.240;8.548;2022-12-11T06:26:28;99969.66;;;3.63
19568;BMP280;9930;49.240;8.548;2022-12-11T06:28:56;99976.53;;;3.65
19568;BMP280;9930;49.240;8.548;2022-12-11T06:31:23;99985.22;;;3.70
19568;BMP280;9930;49.240;8.548;2022-12-11T06:33:49;99987.84;;;3.72
19568;BMP280;9930;49.240;8.548;2022-12-11T06:36:21;99970.72;;;3.66
19568;BMP280;9930;49.240;8.548;2022-12-11T06:38:47;99964.78;;;3.66
19568;BMP280;9930;49.240;8.548;2022-12-11T06:41:16;99979.50;;;3.73
19568;BMP280;9930;49.240;8.548;2022-12-11T06:43:42;99969.16;;;3.68
19568;BMP280;9930;49.240;8.548;2022-12-11T06:46:18;99983.59;;;3.71
19568;BMP280;9930;49.240;8.548;2022-12-11T06:48:45;99983.59;;;3.71
19568;BMP280;9930;49.240;8.548;2022-12-11T06:51:17;99975.06;;;3.69
19568;BMP280;9930;49.240;8.548;2022-12-11T06:53:49;99970.63;;;3.65
19568;BMP280;9930;49.240;8.548;2022-12-11T06:56:18;99976.88;;;3.71
19568;BMP280;9930;49.240;8.548;2022-12-11T06:58:43;99968.28;;;3.68
19568;BMP280;9930;49.240;8.548;2022-12-11T07:01:28;99980.53;;;3.76
19568;BMP280;9930;49.240;8.548;2022-12-11T07:03:59;99970.38;;;3.75
19568;BMP280;9930;49.240;8.548;2022-12-11T07:06:28;99968.44;;;3.71
19568;BMP280;9930;49.240;8.548;2022-12-11T07:08:58;99977.84;;;3.73
19568;BMP280;9930;49.240;8.548;2022-12-11T07:11:30;99978.72;;;3.74
19568;BMP280;9930;49.240;8.548;2022-12-11T07:14:01;99967.22;;;3.64
19568;BMP280;9930;49.240;8.548;2022-12-11T07:16:28;99961.75;;;3.56
19568;BMP280;9930;49.240;8.548;2022-12-11T07:18:59;99984.28;;;3.68
19568;BMP280;9930;49.240;8.548;2022-12-11T07:21:30;99992.63;;;3.67
19568;BMP280;9930;49.240;8.548;2022-12-11T07:23:58;99993.41;;;3.66
19568;BMP280;9930;49.240;8.548;2022-12-11T07:26:28;99978.69;;;3.59
19568;BMP280;9930;49.240;8.548;2022-12-11T07:28:59;99994.97;;;3.64
19568;BMP280;9930;49.240;8.548;2022-12-11T07:31:28;99998.53;;;3.68
19568;BMP280;9930;49.240;8.548;2022-12-11T07:33:57;100005.31;;;3.69
19568;BMP280;9930;49.240;8.548;2022-12-11T07:36:25;100003.75;;;3.71
19568;BMP280;9930;49.240;8.548;2022-12-11T07:38:52;99987.31;;;3.63
19568;BMP280;9930;49.240;8.548;2022-12-11T07:41:18;100001.31;;;3.72
19568;BMP280;9930;49.240;8.548;2022-12-11T07:43:44;100000.53;;;3.73
19568;BMP280;9930;49.240;8.548;2022-12-11T07:46:21;100003.16;;;3.75
19568;BMP280;9930;49.240;8.548;2022-12-11T07:48:48;99998.81;;;3.72
19568;BMP280;9930;49.240;8.548;2022-12-11T07:51:22;100004.03;;;3.75
19568;BMP280;9930;49.240;8.548;2022-12-11T07:53:59;100005.75;;;3.76
19568;BMP280;9930;49.240;8.548;2022-12-11T07:56:27;100008.28;;;3.76
19568;BMP280;9930;49.240;8.548;2022-12-11T07:58:58;99995.59;;;3.75
19568;BMP280;9930;49.240;8.548;2022-12-11T08:01:31;100004.09;;;3.77
19568;BMP280;9930;49.240;8.548;2022-12-11T08:03:57;100000.72;;;3.76
19568;BMP280;9930;49.240;8.548;2022-12-11T08:06:30;99992.78;;;3.70
19568;BMP280;9930;49.240;8.548;2022-12-11T08:08:59;99997.25;;;3.74
19568;BMP280;9930;49.240;8.548;2022-12-11T08:11:28;99998.88;;;3.74
19568;BMP280;9930;49.240;8.548;2022-12-11T08:14:00;99990.88;;;3.66
19568;BMP280;9930;49.240;8.548;2022-12-11T08:16:29;100002.78;;;3.69
19568;BMP280;9930;49.240;8.548;2022-12-11T08:18:56;100003.66;;;3.69
19568;BMP280;9930;49.240;8.548;2022-12-11T08:21:26;100009.59;;;3.70
19568;BMP280;9930;49.240;8.548;2022-12-11T08:23:53;100004.63;;;3.71
19568;BMP280;9930;49.240;8.548;2022-12-11T08:26:31;100000.28;;;3.69
19568;BMP280;9930;49.240;8.548;2022-12-11T08:29:02;99991.75;;;3.67
19568;BMP280;9930;49.240;8.548;2022-12-11T08:31:28;100004.09;;;3.77
19568;BMP280;9930;49.240;8.548;2022-12-11T08:33:57;99986.88;;;3.70
19568;BMP280;9930;49.240;8.548;2022-12-11T08:36:25;100000.91;;;3.79
19568;BMP280;9930;49.240;8.548;2022-12-11T08:38:53;99995.59;;;3.75
19568;BMP280;9930;49.240;8.548;2022-12-11T08:41:26;99998.19;;;3.76
19568;BMP280;9930;49.240;8.548;2022-12-11T08:43:56;100003.25;;;3.76
19568;BMP280;9930;49.240;8.548;2022-12-11T08:46:26;99992.72;;;3.69
19568;BMP280;9930;49.240;8.548;2022-12-11T08:48:54;99989.50;;;3.71
19568;BMP280;9930;49.240;8.548;2022-12-11T08:51:24;99997.41;;;3.77
19568;BMP280;9930;49.240;8.548;2022-12-11T08:53:56;99990.63;;;3.76
19568;BMP280;9930;49.240;8.548;2022-12-11T08:56:23;99994.19;;;3.80
19568;BMP280;9930;49.240;8.548;2022-12-11T08:58:51;99996.28;;;3.87
19568;BMP280;9930;49.240;8.548;2022-12-11T09:01:25;99990.38;;;3.86
19568;BMP280;9930;49.240;8.548;2022-12-11T09:03:53;99983.75;;;3.88
19568;BMP280;9930;49.240;8.548;2022-12-11T09:06:25;100002.91;;;4.00
19568;BMP280;9930;49.240;8.548;2022-12-11T09:08:57;99991.06;;;3.99
19568;BMP280;9930;49.240;8.548;2022-12-11T09:11:28;100000.13;;;4.10
19568;BMP280;9930;49.240;8.548;2022-12-11T09:13:59;99991.59;;;4.08
19568;BMP280;9930;49.240;8.548;2022-12-11T09:16:26;99998.13;;;4.19
19568;BMP280;9930;49.240;8.548;2022-12-11T09:18:55;100000.97;;;4.25
19568;BMP280;9930;49.240;8.548;2022-12-11T09:21:26;99992.72;;;4.28
19568;BMP280;9930;49.240;8.548;2022-12-11T09:23:55;99993.91;;;4.34
19568;BMP280;9930;49.240;8.548;2022-12-11T09:26:25;99978.59;;;4.31
19568;BMP280;9930;49.240;8.548;2022-12-11T09:28:52;99998.53;;;4.41
19568;BMP280;9930;49.240;8.548;2022-12-11T09:31:26;99994.50;;;4.45
19568;BMP280;9930;49.240;8.548;2022-12-11T09:34:05;99996.34;;;4.47
19568;BMP280;9930;49.240;8.548;2022-12-11T09:36:31;99974.22;;;4.43
19568;BMP280;9930;49.240;8.548;2022-12-11T09:39:06;99981.75;;;4.58
19568;BMP280;9930;49.240;8.548;2022-12-11T09:44:31;99988.03;;;4.65
19568;BMP280;9930;49.240;8.548;2022-12-11T09:46:59;99972.63;;;4.60
19568;BMP280;9930;49.240;8.548;2022-12-11T09:49:38;99991.13;;;4.75
19568;BMP280;9930;49.240;8.548;2022-12-11T09:52:15;99982.91;;;4.79
19568;BMP280;9930;49.240;8.548;2022-12-11T09:54:58;99981.59;;;4.86
19568;BMP280;9930;49.240;8.548;2022-12-11T10:03:34;99979.00;;;5.01
19568;BMP280;9930;49.240;8.548;2022-12-11T10:06:21;99975.13;;;5.07
19568;BMP280;9930;49.240;8.548;2022-12-11T10:12:28;99976.94;;;5.26
19568;BMP280;9930;49.240;8.548;2022-12-11T10:15:25;99974.78;;;5.34
19568;BMP280;9930;49.240;8.548;2022-12-11T10:17:58;99960.88;;;5.42
19568;BMP280;9930;49.240;8.548;2022-12-11T10:20:33;99949.09;;;5.42
19568;BMP280;9930;49.240;8.548;2022-12-11T10:23:07;99967.56;;;5.58
19568;BMP280;9930;49.240;8.548;2022-12-11T10:25:49;99941.50;;;5.59
19568;BMP280;9930;49.240;8.548;2022-12-11T10:28:21;99938.53;;;5.67
19568;BMP280;9930;49.240;8.548;2022-12-11T10:34:17;99939.84;;;5.93
19568;BMP280;9930;49.240;8.548;2022-12-11T10:36:48;99931.47;;;5.94
19568;BMP280;9930;49.240;8.548;2022-12-11T10:39:19;99945.00;;;6.12
19568;BMP280;9930;49.240;8.548;2022-12-11T10:41:49;99917.22;;;6.14
19568;BMP280;9930;49.240;8.548;2022-12-11T10:47:10;99925.16;;;6.39
19568;BMP280;9930;49.240;8.548;2022-12-11T10:49:41;99908.31;;;6.40
19568;BMP280;9930;49.240;8.548;2022-12-11T10:52:28;99908.06;;;6.53
19568;BMP280;9930;49.240;8.548;2022-12-11T10:55:06;99899.81;;;6.57
19568;BMP280;9930;49.240;8.548;2022-12-11T10:57:37;99905.22;;;6.65
19568;BMP280;9930;49.240;8.548;2022-12-11T11:03:02;99912.63;;;6.79
19568;BMP280;9930;49.240;8.548;2022-12-11T11:05:35;99905.09;;;6.81
19568;BMP280;9930;49.240;8.548;2022-12-11T11:08:22;99907.09;;;6.88
19568;BMP280;9930;49.240;8.548;2022-12-11T11:11:00;99890.69;;;6.80
19568;BMP280;9930;49.240;8.548;2022-12-11T11:13:30;99895.16;;;6.86
19568;BMP280;9930;49.240;8.548;2022-12-11T11:16:05;99893.16;;;6.78
19568;BMP280;9930;49.240;8.548;2022-12-11T11:18:40;99896.75;;;6.83
19568;BMP280;9930;49.240;8.548;2022-12-11T11:21:21;99886.28;;;6.76
19568;BMP280;9930;49.240;8.548;2022-12-11T11:23:50;99879.22;;;6.69
19568;BMP280;9930;49.240;8.548;2022-12-11T11:26:23;99880.88;;;6.68
19568;BMP280;9930;49.240;8.548;2022-12-11T11:28:54;99883.34;;;6.67
19568;BMP280;9930;49.240;8.548;2022-12-11T11:31:32;99874.81;;;6.65
19568;BMP280;9930;49.240;8.548;2022-12-11T11:34:07;99877.41;;;6.66
19568;BMP280;9930;49.240;8.548;2022-12-11T11:36:36;99884.34;;;6.70
19568;BMP280;9930;49.240;8.548;2022-12-11T11:39:34;99881.03;;;6.71
19568;BMP280;9930;49.240;8.548;2022-12-11T11:44:42;99868.16;;;6.67
19568;BMP280;9930;49.240;8.548;2022-12-11T11:47:25;99866.53;;;6.69
19568;BMP280;9930;49.240;8.548;2022-12-11T11:52:46;99874.06;;;6.67
19568;BMP280;9930;49.240;8.548;2022-12-11T12:00:32;99858.47;;;6.58
19568;BMP280;9930;49.240;8.548;2022-12-11T12:03:08;99865.28;;;6.59
19568;BMP280;9930;49.240;8.548;2022-12-11T12:05:47;99874.47;;;6.57
19568;BMP280;9930;49.240;8.548;2022-12-11T12:08:35;99874.13;;;6.49
19568;BMP280;9930;49.240;8.548;2022-12-11T12:14:29;99882.53;;;6.48
19568;BMP280;9930;49.240;8.548;2022-12-11T12:18:17;99882.38;;;6.45
19568;BMP280;9930;49.240;8.548;2022-12-11T12:20:53;99877.97;;;6.41
19568;BMP280;9930;49.240;8.548;2022-12-11T12:26:34;99880.44;;;6.40
19568;BMP280;9930;49.240;8.548;2022-12-11T12:35:40;99870.38;;;6.41
19568;BMP280;9930;49.240;8.548;2022-12-11T12:38:43;99874.66;;;6.42
19568;BMP280;9930;49.240;8.548;2022-12-11T12:41:20;99859.31;;;6.39
19568;BMP280;9930;49.240;8.548;2022-12-11T12:44:21;99851.72;;;6.39
19568;BMP280;9930;49.240;8.548;2022-12-11T12:47:11;99862.25;;;6.48
19568;BMP280;9930;49.240;8.548;2022-12-11T12:52:32;99839.41;;;6.47
19568;BMP280;9930;49.240;8.548;2022-12-11T12:55:17;99842.84;;;6.49
19568;BMP280;9930;49.240;8.548;2022-12-11T12:58:42;99848.19;;;6.55
19568;BMP280;9930;49.240;8.548;2022-12-11T13:04:05;99838.94;;;6.56
19568;BMP280;9930;49.240;8.548;2022-12-11T13:09:32;99833.72;;;6.53
19568;BMP280;9930;49.240;8.548;2022-12-11T13:12:11;99834.59;;;6.53
19568;BMP280;9930;49.240;8.548;2022-12-11T13:14:39;99837.13;;;6.53
19568;BMP280;9930;49.240;8.548;2022-12-11T13:19:48;99844.28;;;6.62
19568;BMP280;9930;49.240;8.548;2022-12-11T13:24:55;99840.88;;;6.61
19568;BMP280;9930;49.240;8.548;2022-12-11T13:27:39;99846.06;;;6.64
19568;BMP280;9930;49.240;8.548;2022-12-11T13:33:00;99844.94;;;6.58
19568;BMP280;9930;49.240;8.548;2022-12-11T13:35:34;99842.53;;;6.61
19568;BMP280;9930;49.240;8.548;2022-12-11T13:38:23;99844.72;;;6.53
19568;BMP280;9930;49.240;8.548;2022-12-11T13:40:56;99857.66;;;6.59
19568;BMP280;9930;49.240;8.548;2022-12-11T13:43:32;99849.66;;;6.50
19568;BMP280;9930;49.240;8.548;2022-12-11T13:46:06;99854.19;;;6.57
19568;BMP280;9930;49.240;8.548;2022-12-11T13:48:47;99855.88;;;6.57
19568;BMP280;9930;49.240;8.548;2022-12-11T13:51:20;99850.59;;;6.52
19568;BMP280;9930;49.240;8.548;2022-12-11T13:53:46;99855.81;;;6.55
19568;BMP280;9930;49.240;8.548;2022-12-11T13:56:19;99855.66;;;6.52
19568;BMP280;9930;49.240;8.548;2022-12-11T13:58:47;99855.66;;;6.52
19568;BMP280;9930;49.240;8.548;2022-12-11T14:01:32;99863.53;;;6.58
19568;BMP280;9930;49.240;8.548;2022-12-11T14:04:03;99868.41;;;6.54
19568;BMP280;9930;49.240;8.548;2022-12-11T14:06:34;99852.84;;;6.46
19568;BMP280;9930;49.240;8.548;2022-12-11T14:09:03;99866.59;;;6.51
19568;BMP280;9930;49.240;8.548;2022-12-11T14:11:41;99875.88;;;6.50
19568;BMP280;9930;49.240;8.548;2022-12-11T14:14:19;99876.66;;;6.49
19568;BMP280;9930;49.240;8.548;2022-12-11T14:16:49;99879.13;;;6.48
19568;BMP280;9930;49.240;8.548;2022-12-11T14:19:21;99883.25;;;6.46
19568;BMP280;9930;49.240;8.548;2022-12-11T14:22:04;99880.66;;;6.44
19568;BMP280;9930;49.240;8.548;2022-12-11T14:24:31;99860.69;;;6.33
19568;BMP280;9930;49.240;8.548;2022-12-11T14:26:57;99878.84;;;6.42
19568;BMP280;9930;49.240;8.548;2022-12-11T14:29:34;99878.84;;;6.42
19568;BMP280;9930;49.240;8.548;2022-12-11T14:32:03;99879.44;;;6.36
19568;BMP280;9930;49.240;8.548;2022-12-11T14:34:42;99893.97;;;6.40
19568;BMP280;9930;49.240;8.548;2022-12-11T14:37:14;99895.56;;;6.38
19568;BMP280;9930;49.240;8.548;2022-12-11T14:42:42;99899.69;;;6.36
19568;BMP280;9930;49.240;8.548;2022-12-11T14:45:31;99890.16;;;6.31
19568;BMP280;9930;49.240;8.548;2022-12-11T14:48:27;99905.41;;;6.32
19568;BMP280;9930;49.240;8.548;2022-12-11T14:51:00;99906.28;;;6.33
19568;BMP280;9930;49.240;8.548;2022-12-11T14:53:45;99906.22;;;6.31
19568;BMP280;9930;49.240;8.548;2022-12-11T14:56:20;99905.34;;;6.31
19568;BMP280;9930;49.240;8.548;2022-12-11T14:59:05;99901.00;;;6.28
19568;BMP280;9930;49.240;8.548;2022-12-11T15:01:39;99900.00;;;6.25
19568;BMP280;9930;49.240;8.548;2022-12-11T15:04:32;99905.84;;;6.24
19568;BMP280;9930;49.240;8.548;2022-12-11T15:07:15;99901.59;;;6.23
19568;BMP280;9930;49.240;8.548;2022-12-11T15:09:47;99883.44;;;6.13
19568;BMP280;9930;49.240;8.548;2022-12-11T15:12:19;99902.25;;;6.18
19568;BMP280;9930;49.240;8.548;2022-12-11T15:14:54;99896.16;;;6.15
19568;BMP280;9930;49.240;8.548;2022-12-11T15:17:31;99901.97;;;6.12
19568;BMP280;9930;49.240;8.548;2022-12-11T15:20:29;99892.13;;;6.01
19568;BMP280;9930;49.240;8.548;2022-12-11T15:22:59;99906.72;;;6.06
19568;BMP280;9930;49.240;8.548;2022-12-11T15:25:29;99899.50;;;5.96
19568;BMP280;9930;49.240;8.548;2022-12-11T15:28:00;99913.25;;;6.01
19568;BMP280;9930;49.240;8.548;2022-12-11T15:30:32;99901.88;;;5.93
19568;BMP280;9930;49.240;8.548;2022-12-11T15:35:33;99915.47;;;5.95
19568;BMP280;9930;49.240;8.548;2022-12-11T15:37:59;99911.13;;;5.93
19568;BMP280;9930;49.240;8.548;2022-12-11T15:40:31;99898.00;;;5.83
19568;BMP280;9930;49.240;8.548;2022-12-11T15:43:01;99915.88;;;5.86
19568;BMP280;9930;49.240;8.548;2022-12-11T15:45:28;99919.19;;;5.85
19568;BMP280;9930;49.240;8.548;2022-12-11T15:47:59;99918.25;;;5.83
19568;BMP280;9930;49.240;8.548;2022-12-11T15:50:28;99911.16;;;5.76
19568;BMP280;9930;49.240;8.548;2022-12-11T15:52:58;99922.31;;;5.80
19568;BMP280;9930;49.240;8.548;2022-12-11T15:55:28;99910.78;;;5.69
19568;BMP280;9930;49.240;8.548;2022-12-11T15:58:05;99925.47;;;5.76
19568;BMP280;9930;49.240;8.548;2022-12-11T16:00:32;99922.06;;;5.75
19568;BMP280;9930;49.240;8.548;2022-12-11T16:03:02;99922.06;;;5.75
19568;BMP280;9930;49.240;8.548;2022-12-11T16:05:29;99913.25;;;5.67
19568;BMP280;9930;49.240;8.548;2022-12-11T16:07:59;99921.22;;;5.75
19568;BMP280;9930;49.240;8.548;2022-12-11T16:10:28;99927.13;;;5.75
19568;BMP280;9930;49.240;8.548;2022-12-11T16:12:58;99909.91;;;5.68
19568;BMP280;9930;49.240;8.548;2022-12-11T16:15:33;99924.59;;;5.75
19568;BMP280;9930;49.240;8.548;2022-12-11T16:18:08;99934.81;;;5.77
19568;BMP280;9930;49.240;8.548;2022-12-11T16:20:35;99929.66;;;5.75
19568;BMP280;9930;49.240;8.548;2022-12-11T16:23:03;99918.38;;;5.69